Time;durP1;ratioP1;P1;durP2;ratioP2;P2;SDS_P1;SDS_P2;PMS_P1;PMS_P2;Temp;Humidity;BMP_temperature;BMP_pressure;BME280_temperature;BME280_humidity;BME280_pressure;Samples;Min_cycle;Max_cycle;Signal;HPM_P1;HPM_P2
2022/03/19 00:00:01;;;;;;;10.20;1.95;;;5.10;99.90;;;;;;4902207;29;20083;-84
2022/03/19 00:02:26;;;;;;;9.07;2.38;;;5.10;99.90;;;;;;4887742;29;20462;-84
2022/03/19 00:04:53;;;;;;;11.82;1.90;;;5.50;99.90;;;;;;4887743;29;20561;-84
2022/03/19 00:07:19;;;;;;;7.32;1.60;;;5.00;99.90;;;;;;4872065;29;20056;-84
2022/03/19 00:09:45;;;;;;;7.13;2.05;;;5.00;99.90;;;;;;4872691;29;20111;-85
2022/03/19 00:12:15;;;;;;;13.15;2.00;;;6.20;99.90;;;;;;4907526;29;20040;-84
2022/03/19 00:14:44;;;;;;;10.48;1.90;;;5.00;99.90;;;;;;4905969;29;20055;-85
2022/03/19 00:17:10;;;;;;;9.88;1.90;;;5.00;99.90;;;;;;4887306;29;20051;-84
2022/03/19 00:19:40;;;;;;;9.25;2.22;;;5.00;99.90;;;;;;4886756;29;20071;-85
2022/03/19 00:22:07;;;;;;;6.25;1.63;;;5.00;99.90;;;;;;4924277;29;20126;-84
2022/03/19 00:24:35;;;;;;;10.60;2.17;;;4.90;99.90;;;;;;4887435;29;20056;-85
2022/03/19 00:27:01;;;;;;;6.68;2.13;;;5.60;99.90;;;;;;4886183;29;20140;-84
2022/03/19 00:29:27;;;;;;;7.05;1.80;;;4.90;99.90;;;;;;4900904;29;20151;-85
2022/03/19 00:31:52;;;;;;;6.35;1.70;;;4.90;99.90;;;;;;4877395;29;20098;-85
2022/03/19 00:34:18;;;;;;;7.95;1.90;;;4.80;99.90;;;;;;4901289;29;20045;-84
2022/03/19 00:36:44;;;;;;;6.15;1.85;;;5.40;99.90;;;;;;4884040;29;20036;-84
2022/03/19 00:39:09;;;;;;;9.60;2.22;;;4.80;99.90;;;;;;4871907;29;20054;-85
2022/03/19 00:41:35;;;;;;;6.32;1.90;;;4.80;99.90;;;;;;4885224;29;20048;-84
2022/03/19 00:44:01;;;;;;;6.30;1.63;;;4.70;99.90;;;;;;4902608;29;20056;-85
2022/03/19 00:46:27;;;;;;;7.30;1.88;;;5.70;99.90;;;;;;4855084;29;20095;-84
2022/03/19 00:48:53;;;;;;;7.45;2.17;;;4.60;99.90;;;;;;4902333;29;20055;-85
2022/03/19 00:51:18;;;;;;;7.57;1.60;;;4.60;99.90;;;;;;4904453;29;20052;-84
2022/03/19 00:53:44;;;;;;;5.28;1.73;;;4.60;99.90;;;;;;4894251;29;20131;-83
2022/03/19 00:56:10;;;;;;;9.02;1.90;;;4.60;99.90;;;;;;4917774;29;20076;-84
2022/03/19 00:58:36;;;;;;;6.82;2.13;;;4.60;99.90;;;;;;4902851;29;20583;-84
2022/03/19 01:01:02;;;;;;;9.20;2.05;;;4.60;99.90;;;;;;4886322;29;20055;-84
2022/03/19 01:03:27;;;;;;;5.93;1.60;;;4.50;99.90;;;;;;4872619;29;21322;-84
2022/03/19 01:05:53;;;;;;;6.38;1.55;;;4.50;99.90;;;;;;4884603;29;20151;-84
2022/03/19 01:08:19;;;;;;;6.25;1.77;;;4.50;99.90;;;;;;4902707;29;20131;-84
2022/03/19 01:10:45;;;;;;;8.70;1.90;;;4.50;99.90;;;;;;4903988;29;20487;-84
2022/03/19 01:13:10;;;;;;;9.82;1.70;;;4.50;99.90;;;;;;4902990;29;20416;-84
2022/03/19 01:15:36;;;;;;;7.57;2.00;;;4.40;99.90;;;;;;4902310;29;20049;-84
2022/03/19 01:18:02;;;;;;;8.75;1.90;;;4.90;99.90;;;;;;4871127;29;20076;-83
2022/03/19 01:20:29;;;;;;;8.93;1.83;;;4.40;99.90;;;;;;4904915;29;20052;-83
2022/03/19 01:22:55;;;;;;;7.05;1.80;;;5.60;99.90;;;;;;4904442;29;20047;-84
2022/03/19 01:25:22;;;;;;;8.82;2.08;;;4.30;99.90;;;;;;4888147;29;20080;-83
2022/03/19 01:27:49;;;;;;;8.18;1.85;;;4.80;99.90;;;;;;4878836;29;20499;-83
2022/03/19 01:30:19;;;;;;;7.03;1.92;;;4.30;99.90;;;;;;4887302;29;20045;-84
2022/03/19 01:32:46;;;;;;;10.30;1.80;;;4.30;99.90;;;;;;4916342;29;20522;-84
2022/03/19 01:35:13;;;;;;;10.38;1.85;;;4.30;99.90;;;;;;4907638;29;20458;-83
2022/03/19 01:37:40;;;;;;;5.57;1.50;;;5.70;99.90;;;;;;4911196;29;20051;-84
2022/03/19 01:40:08;;;;;;;5.18;1.65;;;4.40;99.90;;;;;;4913096;29;20213;-84
2022/03/19 01:42:37;;;;;;;8.52;1.88;;;4.20;99.90;;;;;;4902522;29;20063;-83
2022/03/19 01:45:04;;;;;;;6.88;1.75;;;4.20;99.90;;;;;;4907796;29;20071;-84
2022/03/19 01:47:31;;;;;;;6.22;1.80;;;4.20;99.90;;;;;;4901754;29;20060;-84
2022/03/19 01:49:58;;;;;;;9.18;1.80;;;4.20;99.90;;;;;;4876694;29;22461;-83
2022/03/19 01:52:25;;;;;;;8.13;1.75;;;4.20;99.90;;;;;;4900969;29;20659;-84
2022/03/19 01:54:52;;;;;;;5.30;1.50;;;4.20;99.90;;;;;;4904862;29;20383;-83
2022/03/19 01:57:21;;;;;;;8.20;2.00;;;4.70;99.90;;;;;;4904447;29;20083;-84
2022/03/19 01:59:48;;;;;;;6.60;1.75;;;5.40;99.90;;;;;;4901713;29;20108;-84
2022/03/19 02:02:14;;;;;;;10.82;1.85;;;5.20;99.90;;;;;;4903350;29;20051;-84
2022/03/19 02:04:41;;;;;;;6.78;1.65;;;4.10;99.90;;;;;;4903034;29;20040;-85
2022/03/19 02:07:11;;;;;;;10.70;2.20;;;4.10;99.90;;;;;;4902192;29;20049;-83
2022/03/19 02:09:38;;;;;;;9.95;2.13;;;4.00;99.90;;;;;;4885482;29;20040;-84
2022/03/19 02:12:06;;;;;;;8.38;2.25;;;4.90;99.90;;;;;;4923210;29;20051;-84
2022/03/19 02:14:36;;;;;;;7.03;1.80;;;4.00;99.90;;;;;;4892092;29;20056;-84
2022/03/19 02:17:04;;;;;;;9.77;1.75;;;5.00;99.90;;;;;;4884523;29;20107;-84
2022/03/19 02:19:30;;;;;;;8.10;2.00;;;4.00;99.90;;;;;;4883598;29;20175;-84
2022/03/19 02:21:56;;;;;;;5.97;1.80;;;5.20;99.90;;;;;;4902532;29;20047;-85
2022/03/19 02:27:06;;;;;;;6.55;1.92;;;3.90;99.90;;;;;;4900484;29;20060;-84
2022/03/19 02:29:32;;;;;;;6.25;1.75;;;4.10;99.90;;;;;;4884422;29;20052;-84
2022/03/19 02:32:00;;;;;;;9.07;2.15;;;4.40;99.90;;;;;;4903183;29;20553;-84
2022/03/19 02:34:26;;;;;;;9.40;2.42;;;3.90;99.90;;;;;;4896716;29;20047;-84
2022/03/19 02:36:53;;;;;;;11.52;1.92;;;5.30;99.90;;;;;;4897255;29;20048;-85
2022/03/19 02:39:28;;;;;;;7.07;1.77;;;3.90;99.90;;;;;;4906563;29;20056;-85
2022/03/19 02:41:56;;;;;;;7.53;2.15;;;3.90;99.90;;;;;;4908072;29;20497;-84
2022/03/19 02:44:22;;;;;;;8.70;2.20;;;3.90;99.90;;;;;;4898459;29;20112;-85
2022/03/19 02:46:57;;;;;;;4.90;1.90;;;3.80;99.90;;;;;;4907985;29;20530;-84
2022/03/19 02:49:23;;;;;;;6.50;1.88;;;4.00;99.90;;;;;;4909035;29;20041;-85
2022/03/19 02:51:51;;;;;;;7.05;2.00;;;3.80;99.90;;;;;;4907816;29;20123;-84
2022/03/19 02:54:26;;;;;;;8.13;2.42;;;4.80;99.90;;;;;;4879397;29;20630;-84
2022/03/19 02:56:53;;;;;;;10.43;2.10;;;3.80;99.90;;;;;;4906767;29;20056;-82
2022/03/19 02:59:21;;;;;;;9.65;1.75;;;3.80;99.90;;;;;;4891415;29;20439;-82
2022/03/19 03:01:51;;;;;;;10.55;2.05;;;3.80;99.90;;;;;;4909601;29;20054;-83
2022/03/19 03:04:17;;;;;;;5.45;1.60;;;3.80;99.90;;;;;;4913592;29;20591;-83
2022/03/19 03:06:45;;;;;;;12.23;2.10;;;5.50;99.90;;;;;;4906008;29;20143;-82
2022/03/19 03:09:11;;;;;;;11.70;2.00;;;3.80;99.90;;;;;;4907224;29;20557;-83
2022/03/19 03:11:38;;;;;;;8.15;2.38;;;4.40;99.90;;;;;;4892110;29;20051;-83
2022/03/19 03:14:10;;;;;;;7.88;2.13;;;4.30;99.90;;;;;;4908504;29;20176;-83
2022/03/19 03:16:37;;;;;;;5.95;1.92;;;4.70;99.90;;;;;;4908239;29;20080;-83
2022/03/19 03:19:06;;;;;;;12.05;2.55;;;3.70;99.90;;;;;;4882586;29;20059;-84
2022/03/19 03:21:33;;;;;;;8.40;1.90;;;3.70;99.90;;;;;;4906701;29;20142;-82
2022/03/19 03:23:59;;;;;;;7.65;2.05;;;5.00;99.90;;;;;;4893633;29;20094;-83
2022/03/19 03:26:26;;;;;;;9.05;2.65;;;3.70;99.90;;;;;;4892145;29;20052;-82
2022/03/19 03:28:52;;;;;;;10.85;2.65;;;3.70;99.90;;;;;;4876389;29;20134;-83
2022/03/19 03:31:18;;;;;;;9.45;2.22;;;3.70;99.90;;;;;;4892605;29;20081;-82
2022/03/19 03:33:45;;;;;;;7.25;2.20;;;4.20;99.90;;;;;;4906599;29;20048;-83
2022/03/19 03:36:11;;;;;;;8.80;2.45;;;3.60;99.90;;;;;;4882474;29;20099;-83
2022/03/19 03:38:37;;;;;;;7.72;2.13;;;3.60;99.90;;;;;;4874870;29;20890;-84
2022/03/19 03:41:03;;;;;;;8.38;2.40;;;3.60;99.90;;;;;;4911172;29;21846;-83
2022/03/19 03:43:30;;;;;;;5.47;2.13;;;5.00;99.90;;;;;;4895447;29;20138;-82
2022/03/19 03:45:56;;;;;;;9.15;2.17;;;3.60;99.90;;;;;;4878631;29;20048;-83
2022/03/19 03:48:22;;;;;;;5.88;2.10;;;3.60;99.90;;;;;;4904227;29;20044;-83
2022/03/19 03:50:51;;;;;;;8.50;2.28;;;3.60;99.90;;;;;;4904272;29;20048;-84
2022/03/19 03:53:17;;;;;;;11.73;2.40;;;3.60;99.90;;;;;;4905897;29;20045;-83
2022/03/19 03:55:44;;;;;;;11.50;2.53;;;4.80;99.90;;;;;;4905157;29;20051;-83
2022/03/19 03:58:11;;;;;;;6.32;2.20;;;3.60;99.90;;;;;;4889107;29;20048;-83
2022/03/19 04:00:36;;;;;;;7.68;2.00;;;3.60;99.90;;;;;;4902785;29;20135;-83
2022/03/19 04:03:04;;;;;;;9.52;2.55;;;4.90;99.90;;;;;;4905040;29;20154;-84
2022/03/19 04:05:30;;;;;;;5.75;2.28;;;4.20;99.90;;;;;;4905566;29;20502;-83
2022/03/19 04:07:56;;;;;;;11.18;3.10;;;3.60;99.90;;;;;;4925653;29;20045;-83
2022/03/19 04:10:21;;;;;;;6.28;2.35;;;3.60;99.90;;;;;;4864998;29;20056;-84
2022/03/19 04:12:48;;;;;;;10.50;2.80;;;3.70;99.90;;;;;;4902861;29;20041;-83
2022/03/19 04:15:13;;;;;;;13.45;2.90;;;3.60;99.90;;;;;;4894779;29;20506;-84
2022/03/19 04:17:40;;;;;;;7.90;2.28;;;5.10;99.90;;;;;;4887405;29;20104;-83
2022/03/19 04:20:07;;;;;;;7.25;2.50;;;3.70;99.90;;;;;;4903148;29;20060;-84
2022/03/19 04:22:38;;;;;;;12.20;3.20;;;3.60;99.90;;;;;;4907665;29;20075;-82
2022/03/19 04:25:08;;;;;;;6.13;2.67;;;3.90;99.90;;;;;;4893824;29;20079;-82
2022/03/19 04:27:34;;;;;;;10.90;2.55;;;3.60;99.90;;;;;;4888678;29;20045;-82
2022/03/19 04:30:00;;;;;;;4.95;2.03;;;3.60;99.90;;;;;;4871760;29;20059;-82
2022/03/19 04:32:26;;;;;;;7.50;2.55;;;4.50;99.90;;;;;;4875605;29;20052;-84
2022/03/19 04:34:51;;;;;;;10.00;3.00;;;3.50;99.90;;;;;;4903363;29;20070;-84
2022/03/19 04:37:17;;;;;;;11.00;2.58;;;3.50;99.90;;;;;;4874256;29;20063;-82
2022/03/19 04:39:43;;;;;;;7.53;2.75;;;3.90;99.90;;;;;;4902787;29;20131;-81
2022/03/19 04:42:09;;;;;;;7.18;2.40;;;3.50;99.90;;;;;;4903056;29;20175;-84
2022/03/19 04:44:34;;;;;;;11.27;2.90;;;3.50;99.90;;;;;;4872975;29;20506;-83
2022/03/19 04:47:00;;;;;;;9.55;3.10;;;3.50;99.90;;;;;;4889335;29;20044;-83
2022/03/19 04:49:26;;;;;;;10.07;3.00;;;4.50;99.90;;;;;;4887405;29;20076;-82
2022/03/19 04:51:52;;;;;;;9.90;2.92;;;3.50;99.90;;;;;;4892334;29;20059;-82
2022/03/19 04:54:17;;;;;;;12.45;2.88;;;3.50;99.90;;;;;;4886935;29;20419;-82
2022/03/19 04:56:44;;;;;;;10.18;3.40;;;3.90;99.90;;;;;;4888606;29;20060;-82
2022/03/19 04:59:15;;;;;;;10.60;3.25;;;4.90;99.90;;;;;;4886551;29;20364;-82
2022/03/19 05:01:40;;;;;;;8.45;2.80;;;4.80;99.90;;;;;;4874835;29;20980;-82
2022/03/19 05:04:07;;;;;;;7.93;3.03;;;3.40;99.90;;;;;;4904543;29;20127;-83
2022/03/19 05:06:32;;;;;;;10.40;3.38;;;3.40;99.90;;;;;;4887876;29;20052;-84
2022/03/19 05:11:43;;;;;;;9.00;3.45;;;3.40;99.90;;;;;;4903758;29;20060;-82
2022/03/19 05:14:09;;;;;;;9.23;3.53;;;4.30;99.90;;;;;;4886142;29;20514;-81
2022/03/19 05:16:35;;;;;;;12.10;3.28;;;3.30;99.90;;;;;;4890360;29;20056;-82
2022/03/19 05:19:02;;;;;;;12.85;3.78;;;3.30;99.90;;;;;;4893892;29;20048;-82
2022/03/19 05:21:28;;;;;;;9.80;3.00;;;3.40;99.90;;;;;;4918427;29;20047;-84
2022/03/19 05:23:54;;;;;;;10.68;3.58;;;4.40;99.90;;;;;;4903327;29;20459;-83
2022/03/19 05:26:20;;;;;;;10.02;3.28;;;3.30;99.90;;;;;;4875616;29;20048;-83
2022/03/19 05:28:46;;;;;;;10.35;3.63;;;3.70;99.90;;;;;;4892580;29;20048;-84
2022/03/19 05:31:12;;;;;;;7.63;3.33;;;4.70;99.90;;;;;;4903132;29;20199;-83
2022/03/19 05:36:24;;;;;;;10.32;3.47;;;4.70;99.90;;;;;;4918565;29;20054;-84
2022/03/19 05:38:50;;;;;;;8.82;3.28;;;3.20;99.90;;;;;;4888121;29;20108;-84
2022/03/19 05:41:16;;;;;;;8.07;3.22;;;3.20;99.90;;;;;;4903607;29;20063;-83
2022/03/19 05:43:43;;;;;;;9.10;3.65;;;3.70;99.90;;;;;;4904939;29;20054;-84
2022/03/19 05:46:09;;;;;;;10.57;4.13;;;4.70;99.90;;;;;;4902717;29;20088;-83
2022/03/19 05:48:34;;;;;;;11.45;3.95;;;3.70;99.90;;;;;;4885602;29;20094;-83
2022/03/19 05:51:01;;;;;;;12.70;3.72;;;3.70;99.90;;;;;;4900646;29;20048;-83
2022/03/19 05:53:45;;;;;;;10.38;4.00;;;4.20;99.90;;;;;;4886331;29;20089;-83
2022/03/19 05:56:11;;;;;;;6.47;3.22;;;3.10;99.90;;;;;;4876745;29;20108;-84
2022/03/19 05:58:36;;;;;;;11.45;3.80;;;3.50;99.90;;;;;;4902048;29;20056;-83
2022/03/19 06:01:02;;;;;;;12.10;5.20;;;3.10;99.90;;;;;;4857190;29;20092;-83
2022/03/19 06:03:28;;;;;;;15.13;3.95;;;4.30;99.90;;;;;;4886557;29;20943;-84
2022/03/19 06:05:54;;;;;;;9.50;4.07;;;3.10;99.90;;;;;;4893624;29;20083;-84
2022/03/19 06:08:20;;;;;;;12.23;3.97;;;3.10;99.90;;;;;;4889629;29;20074;-84
2022/03/19 06:10:45;;;;;;;8.85;3.55;;;3.20;99.90;;;;;;4872867;29;20056;-81
2022/03/19 06:13:11;;;;;;;12.45;4.28;;;3.30;99.90;;;;;;4899726;29;20087;-81
2022/03/19 06:15:37;;;;;;;15.88;4.22;;;2.70;99.90;;;;;;4853579;29;20123;-81
2022/03/19 06:18:02;;;;;;;11.48;3.88;;;3.20;99.90;;;;;;4875971;29;20048;-81
2022/03/19 06:20:28;;;;;;;9.32;3.50;;;3.70;99.90;;;;;;4870683;29;20052;-81
2022/03/19 06:22:54;;;;;;;8.95;3.50;;;3.20;99.90;;;;;;4874157;29;20080;-83
2022/03/19 06:25:20;;;;;;;8.77;3.17;;;3.20;99.90;;;;;;4871583;29;20045;-83
2022/03/19 06:27:45;;;;;;;6.20;3.55;;;3.20;99.90;;;;;;4852900;29;20051;-83
2022/03/19 06:30:21;;;;;;;12.85;4.45;;;3.20;99.90;;;;;;4900214;29;20056;-83
2022/03/19 06:32:50;;;;;;;14.27;4.03;;;;;;;;;;4872242;29;20044;-84
2022/03/19 06:37:19;;;;;;;6.68;3.55;;;3.30;99.90;;;;;;4902922;29;20040;-83
2022/03/19 06:38:02;;;;;;;10.30;3.63;;;4.90;99.90;;;;;;4901285;29;20080;-84
2022/03/19 06:40:28;;;;;;;11.05;3.88;;;3.30;99.90;;;;;;4869492;29;20615;-84
2022/03/19 06:42:54;;;;;;;8.52;3.78;;;2.50;99.90;;;;;;4870589;29;20080;-85
2022/03/19 06:45:20;;;;;;;10.80;3.80;;;3.40;99.90;;;;;;4887212;29;20052;-84
2022/03/19 06:47:46;;;;;;;10.60;3.13;;;3.40;99.90;;;;;;4899366;29;20044;-83
2022/03/19 06:50:16;;;;;;;7.38;3.28;;;3.50;99.90;;;;;;4899955;29;20056;-84
2022/03/19 06:52:42;;;;;;;13.00;3.50;;;3.50;99.90;;;;;;4886070;29;20067;-82
2022/03/19 06:55:08;;;;;;;10.73;3.70;;;4.00;99.90;;;;;;4907660;29;20754;-84
2022/03/19 06:57:34;;;;;;;12.07;4.03;;;4.50;99.90;;;;;;4918714;29;20052;-83
2022/03/19 07:00:00;;;;;;;12.90;3.80;;;3.70;99.90;;;;;;4904837;29;20055;-83
2022/03/19 07:02:26;;;;;;;13.75;4.80;;;3.80;99.90;;;;;;4884401;29;20506;-83
2022/03/19 07:04:52;;;;;;;10.25;4.10;;;3.70;99.90;;;;;;4900615;29;20482;-83
2022/03/19 07:07:18;;;;;;;12.07;4.18;;;4.00;99.90;;;;;;4885857;29;20049;-82
2022/03/19 07:09:44;;;;;;;10.20;3.83;;;3.90;99.90;;;;;;4884904;29;20052;-82
2022/03/19 07:12:13;;;;;;;9.32;3.15;;;5.10;99.90;;;;;;4884440;29;20941;-82
2022/03/19 07:14:39;;;;;;;14.50;3.40;;;4.00;99.90;;;;;;4906465;29;20166;-82
2022/03/19 07:17:05;;;;;;;10.43;3.78;;;4.60;99.90;;;;;;4904283;29;20169;-84
2022/03/19 07:19:31;;;;;;;10.35;3.65;;;4.10;99.90;;;;;;4883204;29;20049;-84
2022/03/19 07:21:57;;;;;;;10.73;3.53;;;4.20;99.90;;;;;;4886778;29;20055;-82
2022/03/19 07:24:23;;;;;;;12.60;3.67;;;4.30;99.90;;;;;;4877722;29;20060;-80
2022/03/19 07:26:49;;;;;;;10.75;3.72;;;5.50;99.90;;;;;;4892750;29;20047;-81
2022/03/19 07:29:18;;;;;;;9.40;3.38;;;5.80;99.90;;;;;;4888310;29;20040;-85
2022/03/19 07:31:45;;;;;;;10.32;3.75;;;4.60;99.90;;;;;;4887307;29;20056;-84
2022/03/19 07:34:11;;;;;;;12.25;4.00;;;4.70;99.90;;;;;;4902247;29;20095;-81
2022/03/19 07:36:36;;;;;;;10.25;3.67;;;4.80;99.90;;;;;;4903075;29;20044;-82
2022/03/19 07:39:02;;;;;;;13.05;4.20;;;4.90;99.90;;;;;;4885543;29;20120;-83
2022/03/19 07:41:48;;;;;;;12.75;4.32;;;5.10;99.90;;;;;;4884421;29;20614;-81
2022/03/19 07:44:15;;;;;;;10.95;3.97;;;5.20;99.90;;;;;;4877427;29;20059;-83
2022/03/19 07:46:44;;;;;;;7.45;3.80;;;5.30;99.90;;;;;;4873221;29;20056;-81
2022/03/19 07:49:11;;;;;;;9.02;4.15;;;5.50;99.90;;;;;;4879988;29;20120;-81
2022/03/19 07:51:37;;;;;;;9.45;3.58;;;5.60;99.90;;;;;;4887869;29;20186;-82
2022/03/19 07:54:03;;;;;;;8.60;3.78;;;5.80;99.90;;;;;;4924417;29;20541;-81
2022/03/19 07:56:29;;;;;;;13.25;3.95;;;5.90;99.90;;;;;;4903021;29;20060;-82
2022/03/19 07:58:55;;;;;;;15.20;4.38;;;6.00;99.90;;;;;;4870459;29;20040;-82
2022/03/19 08:01:20;;;;;;;10.60;4.05;;;6.30;99.90;;;;;;4901582;29;20056;-82
2022/03/19 08:03:46;;;;;;;10.73;3.83;;;6.40;99.90;;;;;;4885644;29;20036;-82
2022/03/19 08:06:12;;;;;;;7.05;3.70;;;7.20;99.90;;;;;;4887939;29;20052;-82
2022/03/19 08:08:38;;;;;;;9.02;3.78;;;6.80;99.90;;;;;;4872051;29;20044;-83
2022/03/19 08:11:04;;;;;;;9.02;4.40;;;7.10;99.90;;;;;;4905050;29;20055;-83
2022/03/19 08:13:30;;;;;;;10.68;3.83;;;7.40;99.90;;;;;;4889509;29;20048;-83
2022/03/19 08:15:56;;;;;;;10.73;3.60;;;7.60;99.90;;;;;;4887353;29;20131;-82
2022/03/19 08:18:23;;;;;;;9.93;3.60;;;7.90;99.90;;;;;;4887062;29;20132;-83
2022/03/19 08:20:49;;;;;;;9.45;3.97;;;8.10;99.90;;;;;;4893779;29;20126;-83
2022/03/19 08:23:15;;;;;;;7.60;3.60;;;8.40;99.90;;;;;;4890596;29;20128;-85
2022/03/19 08:25:42;;;;;;;11.63;3.72;;;8.60;99.90;;;;;;4872339;29;20048;-83
2022/03/19 08:28:08;;;;;;;9.50;4.20;;;8.90;99.90;;;;;;4878208;29;20112;-84
2022/03/19 08:30:34;;;;;;;9.88;3.75;;;9.20;99.90;;;;;;4892910;29;21228;-83
2022/03/19 08:33:01;;;;;;;10.35;3.92;;;9.40;99.90;;;;;;4871686;29;20052;-85
2022/03/19 08:35:27;;;;;;;9.32;3.75;;;9.50;99.90;;;;;;4857723;29;20107;-84
2022/03/19 08:40:15;;;;;;;7.15;3.60;;;9.80;99.90;;;;;;4886249;29;20184;-83
2022/03/19 08:40:39;;;;;;;7.43;3.37;;;10.00;99.90;;;;;;4888491;29;20090;-84
2022/03/19 08:43:05;;;;;;;10.40;3.58;;;10.20;99.90;;;;;;4918652;29;20878;-85
2022/03/19 08:45:30;;;;;;;8.55;3.55;;;10.50;99.90;;;;;;4909072;29;20043;-83
2022/03/19 08:47:56;;;;;;;9.52;3.60;;;10.70;99.90;;;;;;4885961;29;20059;-83
2022/03/19 08:50:27;;;;;;;10.00;3.70;;;10.90;99.90;;;;;;4886291;29;20045;-81
2022/03/19 08:52:58;;;;;;;7.60;3.50;;;11.00;99.90;;;;;;4885823;29;20945;-84
2022/03/19 08:55:24;;;;;;;9.35;4.05;;;11.40;99.90;;;;;;4905482;29;20044;-82
2022/03/19 08:57:50;;;;;;;8.88;4.00;;;11.60;99.90;;;;;;4917038;29;20063;-82
2022/03/19 09:00:16;;;;;;;12.18;3.90;;;11.80;99.90;;;;;;4890492;29;20067;-84
2022/03/19 09:02:43;;;;;;;9.80;3.65;;;12.10;99.90;;;;;;4869489;29;20159;-86
2022/03/19 09:05:08;;;;;;;8.23;3.33;;;12.30;99.90;;;;;;4886822;29;20056;-82
2022/03/19 09:07:34;;;;;;;9.60;3.70;;;12.40;99.90;;;;;;4891942;29;20052;-84
2022/03/19 09:10:00;;;;;;;6.20;3.20;;;13.20;99.90;;;;;;4904735;29;20486;-83
2022/03/19 09:12:26;;;;;;;7.55;3.00;;;12.70;99.90;;;;;;4886321;29;20163;-84
2022/03/19 09:14:53;;;;;;;11.60;4.07;;;12.80;99.90;;;;;;4886730;29;20052;-84
2022/03/19 09:17:19;;;;;;;8.55;3.10;;;11.90;99.90;;;;;;4904344;29;20454;-83
2022/03/19 09:19:45;;;;;;;10.25;3.13;;;13.90;99.90;;;;;;4893027;29;20486;-84
2022/03/19 09:22:11;;;;;;;8.10;3.13;;;13.50;99.90;;;;;;4901412;29;20044;-83
2022/03/19 09:24:40;;;;;;;9.90;3.00;;;13.70;99.90;;;;;;4899744;29;20053;-83
2022/03/19 09:27:06;;;;;;;11.15;3.00;;;13.90;99.90;;;;;;4886482;29;20131;-84
2022/03/19 09:29:32;;;;;;;9.27;2.60;;;14.10;99.90;;;;;;4899423;29;20556;-83
2022/03/19 09:31:58;;;;;;;9.85;3.45;;;14.30;99.90;;;;;;4885429;29;20068;-79
2022/03/19 09:34:24;;;;;;;9.02;3.17;;;14.50;99.90;;;;;;4901419;29;20079;-79
2022/03/19 09:36:49;;;;;;;7.53;2.63;;;14.60;99.90;;;;;;4870031;29;20415;-83
2022/03/19 09:39:16;;;;;;;10.93;2.92;;;14.80;99.90;;;;;;4886406;29;20392;-83
2022/03/19 09:41:43;;;;;;;7.10;2.67;;;15.00;99.90;;;;;;4886977;29;20069;-84
2022/03/19 09:44:12;;;;;;;5.05;2.70;;;15.10;99.90;;;;;;4884183;29;20068;-81
2022/03/19 09:46:38;;;;;;;7.93;2.92;;;15.20;99.90;;;;;;4885829;29;20489;-82
2022/03/19 09:49:04;;;;;;;6.57;2.65;;;15.40;99.90;;;;;;4901437;29;20052;-84
2022/03/19 09:51:34;;;;;;;5.47;2.20;;;15.50;99.90;;;;;;4893166;29;20044;-84
2022/03/19 09:54:00;;;;;;;5.68;2.28;;;15.60;99.80;;;;;;4902714;29;20055;-87
2022/03/19 09:56:25;;;;;;;6.82;2.55;;;15.50;99.70;;;;;;4903634;29;20136;-85
2022/03/19 09:58:55;;;;;;;10.43;2.63;;;15.50;99.10;;;;;;4901138;29;20542;-84
2022/03/19 10:01:25;;;;;;;7.00;2.80;;;15.70;98.50;;;;;;4905938;29;20128;-86
2022/03/19 10:03:56;;;;;;;5.90;2.45;;;15.50;97.80;;;;;;4924191;29;20056;-86
2022/03/19 10:09:41;;;;;;;7.50;2.55;;;16.00;94.90;;;;;;4902250;29;20111;-82
2022/03/19 10:12:13;;;;;;;8.48;2.20;;;16.10;96.10;;;;;;4901126;29;20044;-81
2022/03/19 10:14:39;;;;;;;5.93;2.28;;;16.30;95.40;;;;;;4909509;29;20139;-81
2022/03/19 10:17:04;;;;;;;6.75;2.00;;;16.50;95.50;;;;;;4902145;29;20115;-81
2022/03/19 10:19:30;;;;;;;6.13;2.00;;;16.60;94.50;;;;;;4884704;29;20512;-81
2022/03/19 10:22:08;;;;;;;7.60;1.90;;;16.60;93.00;;;;;;4884684;29;20040;-81
2022/03/19 10:24:36;;;;;;;5.65;1.88;;;16.70;87.20;;;;;;4869760;29;20063;-79
2022/03/19 10:27:03;;;;;;;4.15;1.83;;;16.70;90.20;;;;;;4900092;29;20055;-79
2022/03/19 10:29:33;;;;;;;5.63;2.08;;;16.90;90.30;;;;;;4900119;29;20051;-79
2022/03/19 10:32:08;;;;;;;4.25;1.60;;;17.00;89.10;;;;;;4883999;29;20078;-80
2022/03/19 10:34:35;;;;;;;7.68;1.92;;;16.90;82.70;;;;;;4887106;29;20119;-79
2022/03/19 10:37:01;;;;;;;4.03;1.73;;;16.90;84.90;;;;;;4902352;29;20057;-80
2022/03/19 10:39:29;;;;;;;4.85;1.73;;;17.00;84.70;;;;;;4900571;29;20048;-79
2022/03/19 10:41:56;;;;;;;5.72;2.10;;;17.10;83.80;;;;;;4907296;29;20065;-80
2022/03/19 10:44:27;;;;;;;4.25;1.90;;;17.20;81.50;;;;;;4886154;29;20055;-80
2022/03/19 10:47:00;;;;;;;4.68;1.88;;;17.50;80.90;;;;;;4902337;29;20178;-80
2022/03/19 10:49:28;;;;;;;5.25;2.00;;;17.70;78.10;;;;;;4901995;29;20087;-79
2022/03/19 10:52:02;;;;;;;4.90;1.85;;;17.80;79.00;;;;;;4893360;29;20080;-80
2022/03/19 10:54:29;;;;;;;6.40;2.40;;;18.00;78.10;;;;;;4903778;29;20083;-80
2022/03/19 10:56:55;;;;;;;5.68;2.03;;;18.20;77.60;;;;;;4905372;29;20107;-80
2022/03/19 10:59:22;;;;;;;6.53;1.90;;;18.40;75.80;;;;;;4857518;29;20044;-80
2022/03/19 11:01:51;;;;;;;6.45;1.70;;;18.50;73.40;;;;;;4896497;29;20056;-79
2022/03/19 11:04:18;;;;;;;4.82;1.70;;;18.50;70.80;;;;;;4904447;29;20063;-80
2022/03/19 11:06:45;;;;;;;4.05;1.65;;;18.60;68.50;;;;;;4888911;29;20135;-79
2022/03/19 11:09:14;;;;;;;4.45;1.90;;;18.80;69.40;;;;;;4896819;29;20568;-80
2022/03/19 11:11:48;;;;;;;3.45;1.48;;;19.00;68.40;;;;;;4913305;29;20172;-80
2022/03/19 11:14:22;;;;;;;3.97;1.50;;;19.30;65.90;;;;;;4890209;29;20562;-80
2022/03/19 11:19:45;;;;;;;5.15;1.65;;;19.60;63.40;;;;;;4903805;29;20540;-80
2022/03/19 11:22:12;;;;;;;4.25;1.73;;;19.50;62.50;;;;;;4888217;29;20057;-80
2022/03/19 11:24:51;;;;;;;5.03;1.70;;;19.70;61.60;;;;;;4905252;29;20108;-79
2022/03/19 11:27:19;;;;;;;3.60;1.60;;;19.70;59.60;;;;;;4894821;29;20044;-80
2022/03/19 11:29:44;;;;;;;5.03;1.50;;;19.80;60.70;;;;;;4905423;29;20048;-79
2022/03/19 11:32:22;;;;;;;3.42;1.73;;;20.00;60.20;;;;;;4890117;29;20045;-80
2022/03/19 11:34:59;;;;;;;4.40;1.65;;;20.30;59.00;;;;;;4897712;29;20052;-79
2022/03/19 11:37:57;;;;;;;3.55;1.40;;;20.40;57.90;;;;;;4927357;29;20056;-80
2022/03/19 11:40:22;;;;;;;3.78;1.35;;;20.50;54.80;;;;;;4900471;29;20044;-82
2022/03/19 11:42:57;;;;;;;4.45;1.60;;;20.70;58.30;;;;;;4903622;29;20060;-81
2022/03/19 11:45:25;;;;;;;3.40;1.42;;;20.90;56.80;;;;;;4888427;29;20052;-82
2022/03/19 11:47:51;;;;;;;4.43;1.58;;;21.00;57.00;;;;;;4888656;29;20104;-82
2022/03/19 11:50:23;;;;;;;3.95;1.67;;;21.20;56.10;;;;;;4903797;29;20049;-80
2022/03/19 11:52:49;;;;;;;3.30;1.67;;;21.30;55.70;;;;;;4904022;29;20044;-82
2022/03/19 11:55:19;;;;;;;3.47;1.45;;;21.60;56.30;;;;;;4889074;29;20537;-80
2022/03/19 11:57:56;;;;;;;4.00;1.40;;;21.70;54.40;;;;;;4903186;29;20127;-81
2022/03/19 12:00:31;;;;;;;4.28;1.33;;;21.80;54.40;;;;;;4895105;29;20127;-80
2022/03/19 12:03:16;;;;;;;5.25;1.50;;;21.80;51.40;;;;;;4910024;29;20044;-81
2022/03/19 12:05:47;;;;;;;6.20;1.60;;;21.90;52.70;;;;;;4887254;29;20103;-81
2022/03/19 12:08:24;;;;;;;5.78;1.65;;;21.90;53.20;;;;;;4904036;29;20135;-80
2022/03/19 12:11:00;;;;;;;3.17;1.42;;;22.10;51.30;;;;;;4910364;29;20059;-79
2022/03/19 12:13:26;;;;;;;3.67;1.30;;;22.30;54.10;;;;;;4910516;29;20107;-81
2022/03/19 12:15:53;;;;;;;3.10;1.30;;;22.40;53.50;;;;;;4904521;29;20052;-79
2022/03/19 12:18:33;;;;;;;4.55;1.58;;;22.50;53.20;;;;;;4904017;29;20239;-85
2022/03/19 12:20:58;;;;;;;3.47;1.10;;;22.40;51.50;;;;;;4904595;29;20817;-84
2022/03/19 12:23:27;;;;;;;3.15;1.20;;;22.30;50.50;;;;;;4903423;29;20048;-78
2022/03/19 12:25:58;;;;;;;3.40;1.40;;;22.30;50.60;;;;;;4902105;29;20048;-79
2022/03/19 12:28:25;;;;;;;4.13;1.33;;;22.40;50.80;;;;;;4904495;29;20078;-79
2022/03/19 12:30:50;;;;;;;3.88;1.33;;;22.50;50.20;;;;;;4909310;29;20089;-79
2022/03/19 12:33:16;;;;;;;2.30;1.27;;;22.50;49.40;;;;;;4888255;29;20079;-80
2022/03/19 12:35:44;;;;;;;2.40;1.10;;;22.50;49.60;;;;;;4922634;29;20067;-80
2022/03/19 12:38:21;;;;;;;4.72;1.27;;;22.60;49.00;;;;;;4905443;29;20051;-81
2022/03/19 12:43:39;;;;;;;3.80;1.63;;;22.70;46.40;;;;;;4889666;29;20144;-81
2022/03/19 12:46:05;;;;;;;2.85;1.00;;;22.60;47.40;;;;;;4889275;29;20512;-80
2022/03/19 12:48:32;;;;;;;3.38;1.00;;;22.40;46.80;;;;;;4871437;29;20044;-81
2022/03/19 12:50:59;;;;;;;3.25;1.30;;;22.40;47.00;;;;;;4889623;29;20336;-80
2022/03/19 12:53:37;;;;;;;2.63;1.10;;;22.50;47.80;;;;;;4887112;29;20131;-80
2022/03/19 12:56:17;;;;;;;4.20;1.38;;;22.60;46.70;;;;;;4909223;29;20513;-81
2022/03/19 12:58:46;;;;;;;3.38;1.25;;;22.70;48.00;;;;;;4904720;29;20132;-82
2022/03/19 13:01:18;;;;;;;4.82;1.52;;;22.80;48.00;;;;;;4904457;29;20052;-81
2022/03/19 13:03:44;;;;;;;4.18;1.40;;;22.90;47.20;;;;;;4903909;29;20520;-81
2022/03/19 13:06:11;;;;;;;3.55;1.58;;;23.10;47.70;;;;;;4888392;29;20127;-81
2022/03/19 13:08:50;;;;;;;6.20;2.08;;;23.00;47.60;;;;;;4902608;29;20100;-81